Time;durP1;ratioP1;P1;durP2;ratioP2;P2;SDS_P1;SDS_P2;PMS_P1;PMS_P2;Temp;Humidity;BMP_temperature;BMP_pressure;BME280_temperature;BME280_humidity;BME280_pressure;Samples;Min_cycle;Max_cycle;Signal;HPM_P1;HPM_P2
2023/10/15 00:00:18;;;;;;;;;;;;;;;20.14;51.90;101692.78;5045086;28;19943;-47
2023/10/15 00:02:47;;;;;;;;;;;;;;;20.13;51.88;101696.44;5044604;28;19980;-48
2023/10/15 00:05:22;;;;;;;;;;;;;;;20.13;52.32;101704.56;5044121;28;19921;-51
2023/10/15 00:07:48;;;;;;;;;;;;;;;20.11;51.89;101703.88;5044533;28;20356;-50
2023/10/15 00:10:31;;;;;;;;;;;;;;;20.10;52.16;101694.09;5043164;28;19921;-51
2023/10/15 00:12:57;;;;;;;;;;;;;;;20.09;51.95;101697.78;5042033;28;19928;-49
2023/10/15 00:15:23;;;;;;;;;;;;;;;20.08;52.04;101706.88;5044566;28;19944;-50
2023/10/15 00:17:51;;;;;;;;;;;;;;;20.07;52.27;101710.59;5036556;28;19917;-52
2023/10/15 00:20:17;;;;;;;;;;;;;;;20.05;52.22;101699.97;5044049;28;19924;-46
2023/10/15 00:22:43;;;;;;;;;;;;;;;20.04;52.05;101698.25;5044003;28;19917;-50
2023/10/15 00:25:09;;;;;;;;;;;;;;;20.04;52.28;101694.69;5041232;28;19913;-45
2023/10/15 00:27:36;;;;;;;;;;;;;;;20.03;52.12;101687.63;5041311;28;19921;-46
2023/10/15 00:30:02;;;;;;;;;;;;;;;20.01;52.05;101686.91;5042842;28;19992;-45
2023/10/15 00:32:29;;;;;;;;;;;;;;;20.01;52.29;101670.72;5039421;28;19917;-49
2023/10/15 00:34:54;;;;;;;;;;;;;;;19.98;52.21;101664.63;5039742;28;19987;-46
2023/10/15 00:37:22;;;;;;;;;;;;;;;19.99;52.18;101652.00;5040356;28;19917;-45
2023/10/15 00:39:47;;;;;;;;;;;;;;;19.97;52.43;101638.66;5042639;28;19917;-47
2023/10/15 00:42:12;;;;;;;;;;;;;;;19.97;52.32;101643.22;5042989;28;19912;-46
2023/10/15 00:44:37;;;;;;;;;;;;;;;19.96;52.29;101644.19;5041814;28;19924;-47
2023/10/15 00:47:03;;;;;;;;;;;;;;;19.94;52.10;101640.81;5045203;28;19919;-47
2023/10/15 00:49:29;;;;;;;;;;;;;;;19.93;52.40;101636.44;5040285;28;20190;-47
2023/10/15 00:51:55;;;;;;;;;;;;;;;19.92;52.38;101632.91;5039832;28;20403;-48
2023/10/15 00:54:21;;;;;;;;;;;;;;;19.92;52.46;101635.59;5041623;28;19947;-46
2023/10/15 00:56:47;;;;;;;;;;;;;;;19.91;52.15;101636.56;5039971;28;19917;-47
2023/10/15 00:59:19;;;;;;;;;;;;;;;19.90;52.42;101636.75;5039028;28;19939;-44
2023/10/15 01:01:54;;;;;;;;;;;;;;;19.90;52.35;101642.97;5041964;28;20030;-46
2023/10/15 01:04:24;;;;;;;;;;;;;;;19.88;52.23;101647.72;5036071;28;20027;-48
2023/10/15 01:06:50;;;;;;;;;;;;;;;19.87;52.35;101656.78;5038879;28;19924;-47
2023/10/15 01:09:20;;;;;;;;;;;;;;;19.87;52.32;101655.94;5041293;28;19917;-47
2023/10/15 01:11:56;;;;;;;;;;;;;;;19.85;52.45;101653.41;5044283;28;19920;-46
2023/10/15 01:14:37;;;;;;;;;;;;;;;19.85;52.25;101657.97;5043616;28;19931;-45
2023/10/15 01:17:03;;;;;;;;;;;;;;;19.84;52.20;101657.13;5038928;28;19913;-46
2023/10/15 01:19:34;;;;;;;;;;;;;;;19.83;52.25;101657.25;5043228;28;19923;-46
2023/10/15 01:22:02;;;;;;;;;;;;;;;19.83;52.13;101657.25;5040669;28;19920;-47
2023/10/15 01:24:27;;;;;;;;;;;;;;;19.82;52.50;101660.97;5034484;28;19917;-46
2023/10/15 01:26:59;;;;;;;;;;;;;;;19.80;52.59;101663.84;5040115;28;19913;-45
2023/10/15 01:29:25;;;;;;;;;;;;;;;19.79;52.58;101661.28;5041307;28;19917;-47
2023/10/15 01:31:51;;;;;;;;;;;;;;;19.79;52.62;101669.38;5039147;28;19917;-46
2023/10/15 01:34:21;;;;;;;;;;;;;;;19.77;52.56;101672.22;5042119;28;19917;-47
2023/10/15 01:36:47;;;;;;;;;;;;;;;19.77;52.44;101666.00;5036884;28;19956;-47
2023/10/15 01:39:12;;;;;;;;;;;;;;;19.77;52.42;101671.38;5032335;28;19913;-48
2023/10/15 01:41:41;;;;;;;;;;;;;;;19.75;52.64;101678.78;5036275;28;20356;-47
2023/10/15 01:44:07;;;;;;;;;;;;;;;19.74;52.53;101686.03;5040556;28;19924;-47
2023/10/15 01:49:31;;;;;;;;;;;;;;;19.73;52.59;101701.38;5062957;28;19967;-47
2023/10/15 01:52:02;;;;;;;;;;;;;;;19.73;52.78;101722.97;5039546;28;19913;-46
2023/10/15 01:54:31;;;;;;;;;;;;;;;19.74;52.55;101756.19;5040002;28;19951;-46
2023/10/15 01:56:56;;;;;;;;;;;;;;;19.76;52.32;101747.94;5037232;28;19913;-48
2023/10/15 01:59:21;;;;;;;;;;;;;;;19.75;52.41;101736.28;5039672;28;19932;-47
2023/10/15 02:01:50;;;;;;;;;;;;;;;19.77;52.52;101736.16;5039453;28;20000;-46
2023/10/15 02:04:42;;;;;;;;;;;;;;;19.77;52.27;101726.19;5040502;28;19916;-47
2023/10/15 02:07:03;;;;;;;;;;;;;;;19.78;52.35;101724.34;5038079;28;19919;-48
2023/10/15 02:09:29;;;;;;;;;;;;;;;19.78;52.31;101703.59;5035674;28;19948;-47
2023/10/15 02:11:55;;;;;;;;;;;;;;;19.79;52.06;101691.78;5042900;28;19924;-48
2023/10/15 02:14:22;;;;;;;;;;;;;;;19.81;52.28;101688.97;5040009;28;19917;-46
2023/10/15 02:16:50;;;;;;;;;;;;;;;19.83;52.12;101684.25;5040500;28;19913;-47
2023/10/15 02:19:55;;;;;;;;;;;;;;;19.83;52.06;101666.19;5043228;28;19913;-48
2023/10/15 02:22:13;;;;;;;;;;;;;;;19.86;52.23;101673.16;5040633;28;19925;-46
2023/10/15 02:24:48;;;;;;;;;;;;;;;19.87;51.99;101670.28;5041239;28;19917;-46
2023/10/15 02:27:18;;;;;;;;;;;;;;;19.89;51.99;101626.97;5041522;28;19917;-46
2023/10/15 02:29:49;;;;;;;;;;;;;;;19.90;52.28;101620.56;5039103;28;19920;-47
2023/10/15 02:34:52;;;;;;;;;;;;;;;19.94;51.89;101647.06;5040149;28;19924;-47
2023/10/15 02:37:23;;;;;;;;;;;;;;;19.95;51.97;101648.75;5038633;28;19913;-47
2023/10/15 02:39:51;;;;;;;;;;;;;;;19.98;51.79;101656.53;5041276;28;19992;-48
2023/10/15 02:42:17;;;;;;;;;;;;;;;20.01;51.78;101652.69;5034981;28;19947;-45
2023/10/15 02:44:43;;;;;;;;;;;;;;;20.04;51.86;101648.81;5040058;28;19917;-48
2023/10/15 02:47:19;;;;;;;;;;;;;;;20.05;51.70;101656.78;5036322;28;19928;-46
2023/10/15 02:49:53;;;;;;;;;;;;;;;20.08;51.40;101659.13;5039811;28;19909;-48
2023/10/15 02:52:19;;;;;;;;;;;;;;;20.11;51.68;101655.28;5039279;28;19913;-48
2023/10/15 02:54:45;;;;;;;;;;;;;;;20.14;51.46;101663.91;5038183;28;20233;-47
2023/10/15 02:57:15;;;;;;;;;;;;;;;20.15;51.55;101657.50;5038332;28;19967;-47
2023/10/15 02:59:50;;;;;;;;;;;;;;;20.18;51.26;101672.56;5036796;28;19909;-47
2023/10/15 03:02:17;;;;;;;;;;;;;;;20.20;50.99;101678.63;5037372;28;19918;-47
2023/10/15 03:04:48;;;;;;;;;;;;;;;20.23;51.07;101681.03;5040930;28;19916;-47
2023/10/15 03:07:18;;;;;;;;;;;;;;;20.25;50.99;101679.00;5039843;28;19913;-46
2023/10/15 03:09:44;;;;;;;;;;;;;;;20.28;51.22;101686.78;5038070;28;19909;-47
2023/10/15 03:12:13;;;;;;;;;;;;;;;20.31;51.05;101691.03;5037067;28;19964;-49
2023/10/15 03:14:39;;;;;;;;;;;;;;;20.33;50.71;101681.75;5036400;28;19921;-47
2023/10/15 03:17:12;;;;;;;;;;;;;;;20.37;50.76;101684.97;5035430;28;19913;-46
2023/10/15 03:19:37;;;;;;;;;;;;;;;20.40;50.84;101687.38;5038396;28;19917;-47
2023/10/15 03:22:08;;;;;;;;;;;;;;;20.42;50.72;101685.34;5036663;28;19920;-47
2023/10/15 03:24:34;;;;;;;;;;;;;;;20.45;50.38;101666.97;5040432;28;19980;-47
2023/10/15 03:26:59;;;;;;;;;;;;;;;20.47;50.30;101664.97;5035432;28;19918;-50
2023/10/15 03:29:26;;;;;;;;;;;;;;;20.51;50.56;101664.66;5038384;28;19909;-46
2023/10/15 03:32:04;;;;;;;;;;;;;;;20.54;50.34;101680.56;5038868;28;19952;-47
2023/10/15 03:34:29;;;;;;;;;;;;;;;20.56;50.07;101674.00;5039678;28;19924;-46
2023/10/15 03:37:00;;;;;;;;;;;;;;;20.59;50.17;101672.81;5041380;28;19913;-47
2023/10/15 03:44:47;;;;;;;;;;;;;;;20.66;49.86;101653.09;5038595;28;19924;-46
2023/10/15 03:47:14;;;;;;;;;;;;;;;20.70;49.83;101662.56;5034513;28;19936;-46
2023/10/15 03:49:39;;;;;;;;;;;;;;;20.74;49.59;101654.16;5037379;28;19921;-46
2023/10/15 03:52:08;;;;;;;;;;;;;;;20.77;49.44;101656.50;5038211;28;19968;-46
2023/10/15 03:54:34;;;;;;;;;;;;;;;20.80;49.55;101626.44;5035342;28;19913;-46
2023/10/15 03:57:01;;;;;;;;;;;;;;;20.82;49.55;101635.25;5041454;28;19956;-47
2023/10/15 03:59:26;;;;;;;;;;;;;;;20.84;49.18;101641.34;5035450;28;19913;-46
2023/10/15 04:01:52;;;;;;;;;;;;;;;20.86;49.24;101653.69;5039516;28;19924;-45
2023/10/15 04:04:18;;;;;;;;;;;;;;;20.88;49.42;101638.13;5039670;28;20316;-46
2023/10/15 04:06:45;;;;;;;;;;;;;;;20.91;49.23;101648.63;5036957;28;19920;-46
2023/10/15 04:09:13;;;;;;;;;;;;;;;20.95;49.03;101657.25;5036608;28;19963;-45
2023/10/15 04:11:42;;;;;;;;;;;;;;;20.98;48.89;101656.91;5036197;28;19928;-47
2023/10/15 04:14:17;;;;;;;;;;;;;;;21.01;48.80;101662.00;5037822;28;19920;-45
2023/10/15 04:16:44;;;;;;;;;;;;;;;21.04;49.01;101652.72;5040837;28;19944;-47
2023/10/15 04:19:09;;;;;;;;;;;;;;;21.07;49.02;101655.94;5035479;28;19921;-47
2023/10/15 04:21:42;;;;;;;;;;;;;;;21.09;48.80;101651.22;5041166;28;19963;-47
2023/10/15 04:24:07;;;;;;;;;;;;;;;21.12;48.93;101652.75;5067707;28;20234;-47
2023/10/15 04:26:35;;;;;;;;;;;;;;;21.14;48.85;101646.16;5040523;28;19924;-46
2023/10/15 04:29:08;;;;;;;;;;;;;;;21.16;48.76;101648.72;5043536;28;19917;-45
2023/10/15 04:31:33;;;;;;;;;;;;;;;21.20;48.84;101650.06;5038763;28;20344;-47
2023/10/15 04:33:59;;;;;;;;;;;;;;;21.22;48.61;101648.03;5041065;28;19912;-48
2023/10/15 04:36:24;;;;;;;;;;;;;;;21.26;48.71;101662.06;5041927;28;19948;-46
2023/10/15 04:39:08;;;;;;;;;;;;;;;21.27;48.49;101667.31;5042990;28;20327;-47
2023/10/15 04:41:33;;;;;;;;;;;;;;;21.29;48.33;101676.13;5049740;28;19924;-46
2023/10/15 04:43:58;;;;;;;;;;;;;;;21.33;48.58;101682.06;5039896;28;19976;-47
2023/10/15 04:46:26;;;;;;;;;;;;;;;21.36;48.39;101692.53;5042355;28;19923;-46
2023/10/15 04:48:51;;;;;;;;;;;;;;;21.38;48.49;101704.06;5042737;28;19912;-47
2023/10/15 04:51:16;;;;;;;;;;;;;;;21.41;48.30;101709.16;5042199;28;19948;-47
2023/10/15 04:53:44;;;;;;;;;;;;;;;21.42;48.17;101713.53;5041955;28;19913;-47
2023/10/15 04:56:10;;;;;;;;;;;;;;;21.46;48.33;101728.44;5044914;28;19917;-48
2023/10/15 04:58:35;;;;;;;;;;;;;;;21.48;48.19;101729.09;5041798;28;19912;-47
2023/10/15 05:01:00;;;;;;;;;;;;;;;21.49;48.20;101724.53;5042164;28;19928;-46
2023/10/15 05:03:26;;;;;;;;;;;;;;;21.51;47.99;101722.50;5043328;28;19920;-48
2023/10/15 05:05:51;;;;;;;;;;;;;;;21.53;48.03;101725.88;5038609;28;19919;-49
2023/10/15 05:08:17;;;;;;;;;;;;;;;21.55;48.09;101710.34;5037424;28;19914;-46
2023/10/15 05:10:45;;;;;;;;;;;;;;;21.58;48.01;101719.00;5042017;28;19913;-47
2023/10/15 05:13:14;;;;;;;;;;;;;;;21.61;47.73;101707.81;5038258;28;20388;-47
2023/10/15 05:15:42;;;;;;;;;;;;;;;21.63;48.11;101707.66;5042877;28;19944;-47
2023/10/15 05:18:07;;;;;;;;;;;;;;;21.67;48.06;101709.03;5041895;28;19921;-45
2023/10/15 05:20:33;;;;;;;;;;;;;;;21.73;47.51;101702.06;5042737;28;19917;-46
2023/10/15 05:22:58;;;;;;;;;;;;;;;21.74;47.69;101684.81;5038951;28;20339;-48
2023/10/15 05:25:23;;;;;;;;;;;;;;;21.76;47.47;101683.66;5041099;28;19920;-46
2023/10/15 05:27:51;;;;;;;;;;;;;;;21.77;47.49;101689.91;5039694;28;19924;-47
2023/10/15 05:30:16;;;;;;;;;;;;;;;21.78;47.39;101687.00;5038207;28;19940;-46
2023/10/15 05:32:45;;;;;;;;;;;;;;;21.79;47.45;101687.84;5037608;28;19913;-48
2023/10/15 05:35:10;;;;;;;;;;;;;;;21.79;47.35;101688.72;5041686;28;19936;-47
2023/10/15 05:37:36;;;;;;;;;;;;;;;21.81;47.24;101683.97;5040659;28;19977;-46
2023/10/15 05:40:02;;;;;;;;;;;;;;;21.81;47.25;101683.97;5042268;28;19921;-48
2023/10/15 05:42:29;;;;;;;;;;;;;;;21.83;47.43;101683.78;5041042;28;19913;-46
2023/10/15 05:44:54;;;;;;;;;;;;;;;21.83;47.23;101686.50;5039849;28;19942;-49
2023/10/15 05:47:19;;;;;;;;;;;;;;;21.84;47.54;101680.94;5039113;28;19918;-47
2023/10/15 05:49:45;;;;;;;;;;;;;;;21.85;47.21;101684.50;5038431;28;19976;-47
2023/10/15 05:52:10;;;;;;;;;;;;;;;21.87;47.68;101679.75;5041803;28;19917;-46
2023/10/15 05:54:35;;;;;;;;;;;;;;;21.88;47.48;101682.28;5040883;28;19912;-47
2023/10/15 05:57:02;;;;;;;;;;;;;;;21.89;47.67;101680.44;5041113;28;19924;-47
2023/10/15 05:59:27;;;;;;;;;;;;;;;21.90;47.53;101696.50;5038824;28;19976;-50
2023/10/15 06:01:52;;;;;;;;;;;;;;;21.91;47.75;101706.31;5042196;28;19987;-46
2023/10/15 06:04:18;;;;;;;;;;;;;;;21.92;47.73;101716.13;5038447;28;19944;-49
2023/10/15 06:06:43;;;;;;;;;;;;;;;21.93;47.77;101720.53;5043501;28;19913;-49
2023/10/15 06:09:11;;;;;;;;;;;;;;;21.94;47.63;101716.81;5040984;28;19917;-48
2023/10/15 06:11:36;;;;;;;;;;;;;;;21.96;47.55;101714.78;5041700;28;19924;-47
2023/10/15 06:14:04;;;;;;;;;;;;;;;21.98;47.68;101716.47;5042421;28;19916;-50
2023/10/15 06:16:29;;;;;;;;;;;;;;;22.00;47.65;101711.72;5039833;28;19917;-47
2023/10/15 06:18:54;;;;;;;;;;;;;;;22.00;47.40;101712.56;5038380;28;19967;-50
2023/10/15 06:21:19;;;;;;;;;;;;;;;22.00;47.42;101722.56;5040112;28;20360;-48
2023/10/15 06:23:45;;;;;;;;;;;;;;;22.02;47.63;101720.53;5039117;28;19913;-48
2023/10/15 06:26:10;;;;;;;;;;;;;;;22.02;47.64;101725.94;5034994;28;19916;-46
2023/10/15 06:28:35;;;;;;;;;;;;;;;22.02;47.71;101736.78;5033019;28;19986;-48
2023/10/15 06:31:01;;;;;;;;;;;;;;;22.04;47.39;101737.44;5038199;28;19923;-47
2023/10/15 06:33:26;;;;;;;;;;;;;;;22.04;47.45;101738.28;5038294;28;19917;-48
2023/10/15 06:35:51;;;;;;;;;;;;;;;22.04;47.27;101746.41;5036848;28;20402;-47
2023/10/15 06:38:17;;;;;;;;;;;;;;;22.05;47.48;101744.56;5039072;28;19976;-47
2023/10/15 06:40:43;;;;;;;;;;;;;;;22.05;47.36;101755.41;5042874;28;19936;-47
2023/10/15 06:43:08;;;;;;;;;;;;;;;22.06;47.38;101765.22;5035960;28;20614;-47
2023/10/15 06:45:34;;;;;;;;;;;;;;;22.05;47.45;101774.38;5041961;28;19909;-46
2023/10/15 06:48:00;;;;;;;;;;;;;;;22.06;47.43;101789.59;5039615;28;19913;-46
2023/10/15 06:50:25;;;;;;;;;;;;;;;22.05;47.55;101801.44;5034875;28;19968;-46
2023/10/15 06:52:50;;;;;;;;;;;;;;;22.05;47.41;101817.69;5040890;28;19916;-48
2023/10/15 06:55:19;;;;;;;;;;;;;;;22.04;47.63;101835.78;5039815;28;19932;-48
2023/10/15 06:57:45;;;;;;;;;;;;;;;22.04;47.71;101841.19;5039634;28;20514;-46
2023/10/15 07:00:10;;;;;;;;;;;;;;;22.04;47.56;101843.91;5040734;28;19917;-47
2023/10/15 07:02:35;;;;;;;;;;;;;;;22.04;47.71;101845.78;5036647;28;19932;-47
2023/10/15 07:05:04;;;;;;;;;;;;;;;22.05;47.44;101829.38;5040181;28;19932;-48
2023/10/15 07:07:30;;;;;;;;;;;;;;;22.03;47.45;101814.28;5040730;28;19920;-47
2023/10/15 07:09:56;;;;;;;;;;;;;;;22.03;47.56;101808.88;5038393;28;19920;-47
2023/10/15 07:12:22;;;;;;;;;;;;;;;22.02;47.62;101801.78;5039311;28;19921;-46
2023/10/15 07:14:47;;;;;;;;;;;;;;;22.00;47.59;101799.22;5038258;28;19955;-47
2023/10/15 07:17:12;;;;;;;;;;;;;;;22.00;47.44;101807.34;5038657;28;19948;-47
2023/10/15 07:19:37;;;;;;;;;;;;;;;22.01;47.89;101819.88;5040705;28;19932;-49
2023/10/15 07:22:04;;;;;;;;;;;;;;;22.01;47.67;101816.34;5036042;28;19920;-47
2023/10/15 07:24:31;;;;;;;;;;;;;;;21.99;47.63;101824.59;5038964;28;19951;-48
2023/10/15 07:26:56;;;;;;;;;;;;;;;21.99;47.85;101829.19;5037887;28;20008;-46
2023/10/15 07:29:23;;;;;;;;;;;;;;;21.99;47.86;101835.44;5039576;28;19916;-47
2023/10/15 07:31:48;;;;;;;;;;;;;;;21.99;47.72;101840.00;5038769;28;19913;-46
2023/10/15 07:34:14;;;;;;;;;;;;;;;21.99;47.99;101848.97;5038887;28;19910;-45
2023/10/15 07:36:39;;;;;;;;;;;;;;;21.99;47.64;101845.44;5035227;28;19925;-47
2023/10/15 07:39:06;;;;;;;;;;;;;;;;;;5039491;28;19920;-47
2023/10/15 07:41:31;;;;;;;;;;;;;;;;;;5036472;28;19918;-48
2023/10/15 07:43:56;;;;;;;;;;;;;;;21.95;47.66;101875.53;5038229;28;19920;-46
2023/10/15 07:46:21;;;;;;;;;;;;;;;21.94;47.60;101879.25;5038965;28;19935;-48
2023/10/15 07:48:46;;;;;;;;;;;;;;;21.94;47.98;101887.38;5037666;28;19912;-47
2023/10/15 07:51:12;;;;;;;;;;;;;;;21.93;47.82;101890.28;5036323;28;19913;-46
2023/10/15 07:53:37;;;;;;;;;;;;;;;21.93;47.80;101906.50;5039730;28;19909;-46
2023/10/15 07:56:05;;;;;;;;;;;;;;;21.91;47.96;101909.38;5037449;28;19920;-51
2023/10/15 07:58:30;;;;;;;;;;;;;;;21.90;47.78;101891.44;5038713;28;19948;-48
2023/10/15 08:00:55;;;;;;;;;;;;;;;21.89;47.58;101873.50;5036697;28;19920;-47
2023/10/15 08:03:21;;;;;;;;;;;;;;;21.89;47.84;101878.06;5035302;28;20008;-47
2023/10/15 08:05:48;;;;;;;;;;;;;;;21.87;47.91;101875.50;5045314;28;19913;-50
2023/10/15 08:08:13;;;;;;;;;;;;;;;21.87;47.74;101871.97;5039667;28;19944;-47
2023/10/15 08:10:39;;;;;;;;;;;;;;;21.86;47.65;101878.41;5043131;28;19920;-46
2023/10/15 08:13:04;;;;;;;;;;;;;;;21.85;48.05;101879.41;5041468;28;19909;-48
2023/10/15 08:15:33;;;;;;;;;;;;;;;21.84;47.94;101888.56;5039697;28;19917;-47
2023/10/15 08:17:58;;;;;;;;;;;;;;;21.83;47.75;101889.53;5043027;28;19913;-46
2023/10/15 08:20:23;;;;;;;;;;;;;;;21.82;48.08;101901.38;5040276;28;19920;-48
2023/10/15 08:22:49;;;;;;;;;;;;;;;21.81;48.12;101902.41;5039635;28;19916;-48
2023/10/15 08:25:14;;;;;;;;;;;;;;;21.80;47.90;101909.69;5044507;28;19999;-48
2023/10/15 08:27:44;;;;;;;;;;;;;;;21.80;48.13;101915.09;5038126;28;19913;-48
2023/10/15 08:30:12;;;;;;;;;;;;;;;21.79;48.28;101913.41;5033187;28;19913;-48
2023/10/15 08:32:39;;;;;;;;;;;;;;;21.78;48.27;101921.69;5038321;28;19969;-48
2023/10/15 08:35:05;;;;;;;;;;;;;;;21.77;48.16;101918.13;5038607;28;19909;-48
2023/10/15 08:37:30;;;;;;;;;;;;;;;21.77;48.17;101941.66;5032622;28;19913;-47
2023/10/15 08:39:55;;;;;;;;;;;;;;;21.76;48.04;101948.06;5040035;28;19919;-48
2023/10/15 08:42:23;;;;;;;;;;;;;;;21.75;48.34;101958.06;5043474;28;19913;-47
2023/10/15 08:44:49;;;;;;;;;;;;;;;21.73;48.34;101970.91;5044153;28;19905;-50
2023/10/15 08:47:15;;;;;;;;;;;;;;;21.72;47.99;101963.78;5034734;28;19919;-47
2023/10/15 08:49:44;;;;;;;;;;;;;;;21.70;48.39;101966.63;5042337;28;19909;-48
2023/10/15 08:52:09;;;;;;;;;;;;;;;21.69;48.35;101969.53;5041328;28;19913;-48
2023/10/15 08:54:38;;;;;;;;;;;;;;;21.67;48.38;101958.88;5040583;28;19913;-46
2023/10/15 08:57:06;;;;;;;;;;;;;;;21.65;48.41;101962.72;5042631;28;19913;-46
2023/10/15 08:59:32;;;;;;;;;;;;;;;21.64;48.31;101952.91;5034913;28;19916;-46
2023/10/15 09:01:57;;;;;;;;;;;;;;;21.63;48.24;101962.06;5039472;28;19917;-46
2023/10/15 09:04:22;;;;;;;;;;;;;;;21.61;48.48;101956.78;5035093;28;19920;-51
2023/10/15 09:06:48;;;;;;;;;;;;;;;21.59;48.33;101948.00;5038328;28;19932;-47
2023/10/15 09:09:13;;;;;;;;;;;;;;;21.58;48.58;101949.00;5043091;28;20082;-48
2023/10/15 09:11:42;;;;;;;;;;;;;;;21.57;48.40;101955.41;5037668;28;20428;-49
2023/10/15 09:14:12;;;;;;;;;;;;;;;21.56;48.61;101953.72;5037701;28;19919;-47
2023/10/15 09:16:38;;;;;;;;;;;;;;;21.56;48.41;101952.88;5041531;28;19909;-46
2023/10/15 09:19:06;;;;;;;;;;;;;;;21.55;48.59;101964.72;5022426;28;19924;-46
2023/10/15 09:21:31;;;;;;;;;;;;;;;21.54;48.47;101966.56;5040014;28;19920;-46
2023/10/15 09:23:57;;;;;;;;;;;;;;;21.53;48.38;101962.16;5043231;28;19917;-46
2023/10/15 09:26:27;;;;;;;;;;;;;;;21.52;48.42;101959.63;5039066;28;19991;-49
2023/10/15 09:28:52;;;;;;;;;;;;;;;21.51;48.25;101975.00;5040558;28;19920;-46
2023/10/15 09:31:17;;;;;;;;;;;;;;;21.50;48.44;101967.06;5041194;28;19908;-48
2023/10/15 09:33:42;;;;;;;;;;;;;;;21.50;48.23;101975.19;5039095;28;19916;-48
2023/10/15 09:36:07;;;;;;;;;;;;;;;21.49;48.30;101973.47;5042635;28;19909;-48
2023/10/15 09:38:33;;;;;;;;;;;;;;;21.48;48.45;101980.72;5039103;28;19913;-46
2023/10/15 09:40:58;;;;;;;;;;;;;;;21.47;48.15;101981.75;5039476;28;19944;-49
2023/10/15 09:43:27;;;;;;;;;;;;;;;21.46;48.08;101985.47;5042675;28;19919;-48
2023/10/15 09:45:55;;;;;;;;;;;;;;;21.45;48.09;101990.03;5036856;28;19921;-46
2023/10/15 09:48:23;;;;;;;;;;;;;;;21.44;48.28;101996.44;5041153;28;19958;-47
2023/10/15 09:50:51;;;;;;;;;;;;;;;21.44;47.98;102001.00;5039560;28;19977;-48
2023/10/15 09:53:16;;;;;;;;;;;;;;;21.43;48.28;102002.84;5038582;28;20003;-48
2023/10/15 09:55:42;;;;;;;;;;;;;;;21.43;48.28;102004.72;5039538;28;19924;-46
2023/10/15 09:58:15;;;;;;;;;;;;;;;21.42;48.05;102017.41;5039741;28;19913;-49
2023/10/15 10:00:48;;;;;;;;;;;;;;;21.41;48.29;102012.16;5037642;28;20000;-49
2023/10/15 10:03:25;;;;;;;;;;;;;;;21.40;48.10;102016.69;5042325;28;19913;-48
2023/10/15 10:05:57;;;;;;;;;;;;;;;21.40;48.07;102019.41;5036482;28;20415;-47
2023/10/15 10:08:27;;;;;;;;;;;;;;;21.39;48.43;102025.81;5038944;28;19988;-51
2023/10/15 10:11:11;;;;;;;;;;;;;;;21.38;48.29;102024.13;5038441;28;19916;-48
2023/10/15 10:13:43;;;;;;;;;;;;;;;21.39;48.32;102020.41;5033060;28;19909;-47
2023/10/15 10:16:11;;;;;;;;;;;;;;;21.37;48.52;102019.72;5040716;28;19913;-49
2023/10/15 10:18:37;;;;;;;;;;;;;;;21.36;48.39;102018.00;5037303;28;19909;-46
2023/10/15 10:21:11;;;;;;;;;;;;;;;21.36;48.57;102020.72;5041111;28;19940;-45
2023/10/15 10:23:36;;;;;;;;;;;;;;;21.37;48.58;102027.84;5038983;28;19913;-46
2023/10/15 10:26:09;;;;;;;;;;;;;;;21.37;48.89;102027.00;5036145;28;19948;-47
2023/10/15 10:28:35;;;;;;;;;;;;;;;21.37;48.96;102024.31;5037143;28;19984;-46
2023/10/15 10:31:00;;;;;;;;;;;;;;;21.36;48.95;102023.41;5038897;28;19909;-44
2023/10/15 10:33:41;;;;;;;;;;;;;;;21.35;48.96;102029.00;5034761;28;19916;-46
2023/10/15 10:36:13;;;;;;;;;;;;;;;21.36;48.87;102028.84;5038895;28;19909;-47
2023/10/15 10:38:39;;;;;;;;;;;;;;;21.35;49.15;102029.84;5036653;28;19964;-45
2023/10/15 10:41:06;;;;;;;;;;;;;;;21.35;49.05;102023.59;5035833;28;19952;-45
2023/10/15 10:43:33;;;;;;;;;;;;;;;21.34;49.15;102033.56;5034585;28;19909;-44
2023/10/15 10:45:59;;;;;;;;;;;;;;;21.34;48.96;102036.28;5032892;28;19981;-45
2023/10/15 10:48:25;;;;;;;;;;;;;;;21.34;49.17;102038.97;5038647;28;19909;-45
2023/10/15 10:51:09;;;;;;;;;;;;;;;21.36;49.17;102053.19;5036342;28;19959;-48
2023/10/15 10:53:34;;;;;;;;;;;;;;;21.41;49.33;102047.34;5038997;28;19956;-47
2023/10/15 10:56:03;;;;;;;;;;;;;;;21.43;49.10;102056.13;5042224;28;19916;-47
2023/10/15 10:58:29;;;;;;;;;;;;;;;21.43;48.85;102056.13;5035864;28;19951;-51
2023/10/15 11:00:55;;;;;;;;;;;;;;;21.42;49.15;102052.56;5036300;28;19917;-47
2023/10/15 11:03:20;;;;;;;;;;;;;;;21.43;49.10;102059.69;5034888;28;19967;-46
2023/10/15 11:05:45;;;;;;;;;;;;;;;21.42;49.06;102049.03;5033454;28;19920;-47
2023/10/15 11:08:20;;;;;;;;;;;;;;;21.42;48.81;102057.13;5041142;28;19909;-51
2023/10/15 11:10:45;;;;;;;;;;;;;;;21.39;49.00;102052.03;5034156;28;19905;-46
2023/10/15 11:13:11;;;;;;;;;;;;;;;21.36;48.97;102053.19;5071092;28;19975;-46
2023/10/15 11:15:36;;;;;;;;;;;;;;;21.34;48.91;102049.81;5072713;28;19909;-46
2023/10/15 11:18:04;;;;;;;;;;;;;;;21.33;49.11;102048.09;5034472;28;19909;-46
2023/10/15 11:20:30;;;;;;;;;;;;;;;21.33;49.18;102055.38;5042240;28;19920;-45
2023/10/15 11:22:59;;;;;;;;;;;;;;;21.33;48.89;102053.53;5036712;28;19908;-48
2023/10/15 11:25:24;;;;;;;;;;;;;;;21.33;48.81;102048.09;5037966;28;19908;-46
2023/10/15 11:27:50;;;;;;;;;;;;;;;21.30;49.03;102048.38;5040023;28;19913;-46
2023/10/15 11:30:16;;;;;;;;;;;;;;;21.28;48.96;102052.25;5036989;28;19940;-44
2023/10/15 11:32:41;;;;;;;;;;;;;;;21.26;49.01;102054.25;5039633;28;19909;-46
2023/10/15 11:35:07;;;;;;;;;;;;;;;21.23;49.06;102067.06;5039502;28;19941;-46
2023/10/15 11:37:32;;;;;;;;;;;;;;;21.21;49.36;102073.66;5036617;28;19913;-47
2023/10/15 11:39:57;;;;;;;;;;;;;;;21.18;49.30;102071.25;5040953;28;20239;-46
2023/10/15 11:42:24;;;;;;;;;;;;;;;21.18;49.33;102082.09;5040713;28;19909;-45
2023/10/15 11:44:55;;;;;;;;;;;;;;;21.16;49.27;102081.41;5036364;28;19909;-46
2023/10/15 11:47:24;;;;;;;;;;;;;;;21.16;49.42;102081.41;5048202;28;19909;-45
2023/10/15 11:49:50;;;;;;;;;;;;;;;21.15;49.58;102075.16;5036515;28;19920;-45
2023/10/15 11:52:18;;;;;;;;;;;;;;;21.17;49.57;102066.88;5037946;28;19920;-48
2023/10/15 11:54:48;;;;;;;;;;;;;;;21.18;49.21;102066.69;5038281;28;19992;-45
2023/10/15 11:57:16;;;;;;;;;;;;;;;21.22;49.33;102065.38;5035148;28;19919;-46
2023/10/15 11:59:41;;;;;;;;;;;;;;;21.25;49.15;102060.69;5036539;28;19963;-48
2023/10/15 12:02:10;;;;;;;;;;;;;;;21.29;48.89;102051.25;5038934;28;19913;-46
2023/10/15 12:04:36;;;;;;;;;;;;;;;21.33;48.78;102055.38;5037398;28;19913;-46
2023/10/15 12:07:01;;;;;;;;;;;;;;;21.36;48.89;102060.44;5039393;28;19909;-46
2023/10/15 12:09:26;;;;;;;;;;;;;;;21.38;49.02;102053.88;5034532;28;20320;-48
2023/10/15 12:11:51;;;;;;;;;;;;;;;21.40;48.69;102061.84;5066738;28;19924;-47
2023/10/15 12:14:17;;;;;;;;;;;;;;;21.41;48.72;102080.66;5038923;28;19967;-49
2023/10/15 12:16:43;;;;;;;;;;;;;;;21.42;48.71;102092.31;5033212;28;20330;-46
2023/10/15 12:19:09;;;;;;;;;;;;;;;21.42;48.94;102076.91;5040830;28;19996;-47
2023/10/15 12:21:34;;;;;;;;;;;;;;;21.42;48.67;102076.06;5038107;28;19920;-46
2023/10/15 12:24:00;;;;;;;;;;;;;;;21.42;48.69;102079.63;5030716;28;20634;-46
2023/10/15 12:26:25;;;;;;;;;;;;;;;21.44;48.79;102084.88;5038481;28;19912;-47
2023/10/15 12:28:51;;;;;;;;;;;;;;;21.46;48.99;102082.88;5037936;28;19913;-45
2023/10/15 12:31:17;;;;;;;;;;;;;;;21.48;48.76;102093.53;5039094;28;20332;-46
2023/10/15 12:33:42;;;;;;;;;;;;;;;21.48;48.91;102091.66;5039132;28;19916;-45
2023/10/15 12:36:09;;;;;;;;;;;;;;;21.48;48.77;102082.72;5035466;28;19935;-46
2023/10/15 12:38:34;;;;;;;;;;;;;;;21.48;48.77;102086.25;5031276;28;19909;-48
2023/10/15 12:41:00;;;;;;;;;;;;;;;21.50;48.56;102094.25;5036216;28;19929;-46
2023/10/15 12:43:26;;;;;;;;;;;;;;;21.49;48.59;102095.22;5033167;28;19909;-46
2023/10/15 12:45:52;;;;;;;;;;;;;;;21.49;48.75;102097.94;5039326;28;20099;-47
2023/10/15 12:48:18;;;;;;;;;;;;;;;21.47;48.75;102108.91;5034382;28;19963;-46